Time;durP1;ratioP1;P1;durP2;ratioP2;P2;SDS_P1;SDS_P2;PMS_P1;PMS_P2;Temp;Humidity;BMP_temperature;BMP_pressure;BME280_temperature;BME280_humidity;BME280_pressure;Samples;Min_cycle;Max_cycle;Signal;HPM_P1;HPM_P2
2023/03/23 00:01:00;;;;;;;;;;;8.70;99.90;;;;;;5091895;28;20123;-48
2023/03/23 00:03:28;;;;;;;2.40;1.30;;;8.70;99.90;;;;;;5091008;28;19959;-48
2023/03/23 00:05:59;;;;;;;2.35;1.73;;;8.70;99.90;;;;;;5081534;28;20507;-50
2023/03/23 00:08:25;;;;;;;3.10;1.70;;;8.70;99.90;;;;;;5078654;28;20064;-48
2023/03/23 00:10:52;;;;;;;4.15;1.50;;;8.60;99.90;;;;;;5111614;28;20066;-48
2023/03/23 00:13:20;;;;;;;5.40;1.97;;;8.60;99.90;;;;;;5110006;28;20032;-48
2023/03/23 00:15:48;;;;;;;6.25;2.55;;;8.50;99.90;;;;;;5111703;28;20063;-48
2023/03/23 00:18:21;;;;;;;6.47;1.95;;;8.50;99.90;;;;;;5105432;28;20050;-48
2023/03/23 00:20:55;;;;;;;3.65;1.85;;;8.30;99.90;;;;;;5111384;28;20092;-48
2023/03/23 00:23:24;;;;;;;4.28;1.65;;;8.20;99.90;;;;;;5110657;28;20504;-49
2023/03/23 00:25:52;;;;;;;5.88;1.63;;;8.10;99.90;;;;;;5095641;28;20051;-49
2023/03/23 00:28:24;;;;;;;3.53;1.40;;;8.00;99.90;;;;;;5097177;28;20028;-48
2023/03/23 00:31:05;;;;;;;4.40;1.70;;;8.00;99.90;;;;;;5090990;28;20040;-49
2023/03/23 00:33:37;;;;;;;4.03;1.90;;;8.10;99.90;;;;;;5078001;28;20027;-48
2023/03/23 00:36:09;;;;;;;6.13;2.30;;;8.10;99.90;;;;;;5092805;28;20039;-48
2023/03/23 00:38:36;;;;;;;5.13;2.42;;;8.10;99.90;;;;;;5110165;28;20484;-48
2023/03/23 00:41:03;;;;;;;5.77;2.27;;;8.10;99.90;;;;;;5093130;28;20038;-48
2023/03/23 00:43:29;;;;;;;5.88;2.85;;;8.10;99.90;;;;;;5082946;28;20290;-48
2023/03/23 00:45:56;;;;;;;5.65;2.45;;;8.10;99.90;;;;;;5092872;28;20036;-49
2023/03/23 00:48:23;;;;;;;3.83;2.30;;;8.10;99.90;;;;;;5070995;28;20041;-48
2023/03/23 00:50:52;;;;;;;3.78;2.03;;;8.10;99.90;;;;;;5072343;28;20032;-48
2023/03/23 00:53:18;;;;;;;1.27;1.00;;;8.10;99.90;;;;;;5094526;28;20080;-48
2023/03/23 00:55:46;;;;;;;2.78;1.60;;;8.10;99.90;;;;;;5098714;28;20028;-48
2023/03/23 00:58:14;;;;;;;4.18;1.95;;;8.10;99.90;;;;;;5094307;28;20044;-48
2023/03/23 01:00:40;;;;;;;5.10;1.83;;;8.10;99.90;;;;;;5075695;28;20143;-48
2023/03/23 01:03:06;;;;;;;2.70;1.50;;;8.10;99.90;;;;;;5076362;28;20130;-49
2023/03/23 01:05:36;;;;;;;7.55;2.40;;;8.10;99.90;;;;;;5104994;28;20590;-48
2023/03/23 01:08:02;;;;;;;7.25;2.88;;;8.00;99.90;;;;;;5076627;28;20047;-48
2023/03/23 01:10:32;;;;;;;6.72;2.72;;;8.00;99.90;;;;;;5093987;28;20117;-48
2023/03/23 01:13:01;;;;;;;4.13;2.20;;;8.00;99.90;;;;;;5094162;28;20032;-48
2023/03/23 01:15:28;;;;;;;8.95;2.67;;;8.00;99.90;;;;;;5083681;28;20035;-48
2023/03/23 01:17:54;;;;;;;4.03;2.20;;;8.00;99.90;;;;;;5092585;28;20039;-49
2023/03/23 01:20:20;;;;;;;3.35;1.50;;;8.00;99.90;;;;;;5093018;28;20063;-49
2023/03/23 01:22:46;;;;;;;5.78;1.60;;;8.00;99.90;;;;;;5094457;28;20113;-49
2023/03/23 01:25:12;;;;;;;4.38;2.05;;;7.90;99.90;;;;;;5101360;28;20051;-49
2023/03/23 01:27:39;;;;;;;4.67;1.93;;;7.90;99.90;;;;;;5100555;28;20047;-48
2023/03/23 01:30:07;;;;;;;4.53;1.90;;;7.60;99.90;;;;;;5114054;28;20395;-49
2023/03/23 01:32:33;;;;;;;6.53;2.60;;;7.40;99.90;;;;;;5105977;28;20032;-48
2023/03/23 01:34:59;;;;;;;3.75;2.20;;;7.30;99.90;;;;;;5090450;28;20132;-48
2023/03/23 01:37:26;;;;;;;4.82;2.40;;;7.20;99.90;;;;;;5096099;28;20530;-48
2023/03/23 01:39:55;;;;;;;4.70;2.08;;;7.20;99.90;;;;;;5095231;28;20036;-48
2023/03/23 01:42:25;;;;;;;;;;;7.20;99.90;;;;;;5107785;28;20073;-48
2023/03/23 01:44:51;;;;;;;3.10;2.28;;;7.20;99.90;;;;;;5091960;28;19959;-49
2023/03/23 01:47:23;;;;;;;5.30;2.30;;;7.20;99.90;;;;;;5093748;28;20036;-48
2023/03/23 01:49:50;;;;;;;3.08;2.00;;;7.30;99.90;;;;;;5087500;28;20028;-49
2023/03/23 01:52:21;;;;;;;;;;;7.20;99.90;;;;;;5094321;28;20027;-49
2023/03/23 01:54:51;;;;;;;3.60;2.15;;;7.30;99.90;;;;;;5078839;28;20041;-48
2023/03/23 01:57:21;;;;;;;4.88;2.45;;;7.30;99.90;;;;;;5074877;27;20036;-89
2023/03/23 01:59:51;;;;;;;2.53;1.45;;;7.30;99.90;;;;;;5066332;28;20074;-51
2023/03/23 02:02:22;;;;;;;5.18;1.75;;;7.30;99.90;;;;;;5045950;28;20087;-49
2023/03/23 02:04:49;;;;;;;4.20;1.60;;;7.30;99.90;;;;;;5072690;28;20040;-49
2023/03/23 02:07:19;;;;;;;1.98;1.33;;;7.30;99.90;;;;;;5054007;28;20056;-50
2023/03/23 02:09:44;;;;;;;5.95;1.98;;;7.30;99.90;;;;;;5053807;28;20044;-49
2023/03/23 02:12:11;;;;;;;4.93;1.67;;;7.30;99.90;;;;;;5054455;28;20440;-49
2023/03/23 02:14:37;;;;;;;2.50;1.60;;;7.20;99.90;;;;;;5054890;28;20443;-49
2023/03/23 02:17:25;;;;;;;2.67;1.60;;;7.20;99.90;;;;;;5055483;28;20493;-49
2023/03/23 02:20:23;;;;;;;4.70;1.83;;;7.20;99.90;;;;;;5061865;28;20059;-49
2023/03/23 02:23:05;;;;;;;4.13;1.63;;;7.20;99.90;;;;;;5069267;28;20044;-49
2023/03/23 02:25:45;;;;;;;4.32;1.80;;;7.20;99.90;;;;;;5055163;28;20138;-49
2023/03/23 02:28:29;;;;;;;2.63;2.00;;;7.20;99.90;;;;;;5053492;28;20059;-50
2023/03/23 02:31:11;;;;;;;3.78;2.00;;;7.20;99.90;;;;;;5054203;28;20043;-49
2023/03/23 02:33:55;;;;;;;5.88;2.53;;;7.30;99.90;;;;;;5053749;28;20546;-49
2023/03/23 02:36:43;;;;;;;4.47;2.78;;;7.20;99.90;;;;;;5047180;28;20032;-49
2023/03/23 02:39:12;;;;;;;;;;;7.00;99.90;;;;;;5068695;28;20119;-49
2023/03/23 02:41:50;;;;;;;3.03;1.90;;;6.90;99.90;;;;;;5051392;28;19927;-52
2023/03/23 02:44:17;;;;;;;5.13;2.15;;;6.80;99.90;;;;;;5052846;28;20044;-49
2023/03/23 02:46:43;;;;;;;7.07;2.15;;;6.80;99.90;;;;;;5064198;28;20098;-49
2023/03/23 02:49:14;;;;;;;3.75;2.05;;;6.80;99.90;;;;;;5070520;28;20120;-49
2023/03/23 02:51:43;;;;;;;6.03;2.35;;;6.90;99.90;;;;;;5054204;28;20059;-49
2023/03/23 02:54:10;;;;;;;4.30;1.88;;;6.90;99.90;;;;;;5054581;28;20024;-49
2023/03/23 02:56:36;;;;;;;4.70;2.15;;;6.90;99.90;;;;;;5072602;28;20397;-49
2023/03/23 02:59:08;;;;;;;7.32;2.90;;;6.90;99.90;;;;;;5051611;28;20043;-49
2023/03/23 03:01:35;;;;;;;4.93;2.40;;;7.00;99.90;;;;;;5054237;28;20058;-52
2023/03/23 03:04:23;;;;;;;4.75;2.88;;;7.00;99.90;;;;;;5059922;28;20099;-49
2023/03/23 03:06:51;;;;;;;7.45;2.72;;;7.00;99.90;;;;;;5071570;28;20032;-49
2023/03/23 03:09:25;;;;;;;6.75;2.90;;;7.00;99.90;;;;;;5071507;28;20098;-50
2023/03/23 03:11:56;;;;;;;4.90;2.28;;;6.90;99.90;;;;;;5051741;28;20036;-49
2023/03/23 03:14:30;;;;;;;3.90;2.42;;;6.80;99.90;;;;;;5064404;28;20119;-49
2023/03/23 03:17:05;;;;;;;6.30;1.92;;;6.80;99.90;;;;;;5050311;28;20496;-50
2023/03/23 03:19:44;;;;;;;3.15;1.70;;;6.80;99.90;;;;;;5042833;28;20061;-51
2023/03/23 03:22:11;;;;;;;3.35;1.60;;;6.70;99.90;;;;;;5053695;28;20040;-51
2023/03/23 03:24:42;;;;;;;3.97;1.95;;;6.70;99.90;;;;;;5070520;28;20062;-49
2023/03/23 03:27:14;;;;;;;3.38;2.30;;;6.70;99.90;;;;;;5052639;28;20511;-50
2023/03/23 03:29:51;;;;;;;4.63;2.65;;;6.60;99.90;;;;;;5066762;28;20037;-49
2023/03/23 03:32:22;;;;;;;3.63;1.70;;;6.60;99.90;;;;;;5067133;28;20029;-50
2023/03/23 03:34:50;;;;;;;4.63;1.90;;;6.60;99.90;;;;;;5067062;28;20037;-50
2023/03/23 03:37:17;;;;;;;3.78;2.25;;;6.70;99.90;;;;;;5068482;28;20032;-50
2023/03/23 03:39:44;;;;;;;3.83;2.20;;;6.60;99.90;;;;;;5069717;28;20093;-49
2023/03/23 03:42:10;;;;;;;6.32;2.90;;;6.70;99.90;;;;;;5043309;28;20033;-50
2023/03/23 03:44:35;;;;;;;7.25;4.00;;;6.70;99.90;;;;;;5050000;28;20482;-48
2023/03/23 03:47:01;;;;;;;10.18;3.65;;;6.80;99.90;;;;;;5050555;28;20059;-49
2023/03/23 03:49:28;;;;;;;6.38;3.75;;;6.90;99.90;;;;;;5049736;28;20048;-50
2023/03/23 03:51:54;;;;;;;6.68;4.05;;;6.90;99.90;;;;;;5062982;28;20049;-50
2023/03/23 03:54:30;;;;;;;8.63;4.18;;;6.90;99.90;;;;;;5054658;28;20053;-51
2023/03/23 03:56:57;;;;;;;4.10;2.10;;;7.00;99.90;;;;;;5071462;28;20067;-49
2023/03/23 03:59:41;;;;;;;2.85;1.65;;;6.80;99.90;;;;;;5061113;28;20101;-52
2023/03/23 04:02:43;;;;;;;3.80;2.10;;;6.60;99.90;;;;;;5034873;28;20144;-49
2023/03/23 04:05:11;;;;;;;7.18;2.92;;;6.50;99.90;;;;;;5061399;28;20091;-51
2023/03/23 04:07:38;;;;;;;13.27;3.10;;;6.50;99.90;;;;;;5053178;28;20032;-49
2023/03/23 04:10:06;;;;;;;9.07;2.83;;;6.50;99.90;;;;;;5068688;28;20366;-49
2023/03/23 04:12:33;;;;;;;6.93;4.20;;;6.60;99.90;;;;;;5053394;28;20174;-51
2023/03/23 04:15:34;;;;;;;9.13;4.78;;;6.60;99.90;;;;;;5068334;28;20044;-51
2023/03/23 04:17:59;;;;;;;9.98;3.72;;;6.70;99.90;;;;;;5071114;28;20043;-51
2023/03/23 04:20:26;;;;;;;7.40;3.40;;;6.70;99.90;;;;;;5052839;28;20032;-50
2023/03/23 04:22:54;;;;;;;9.03;3.77;;;6.70;99.90;;;;;;5062425;28;20063;-50
2023/03/23 04:25:21;;;;;;;7.70;3.08;;;6.70;99.90;;;;;;5076656;28;20381;-51
2023/03/23 04:27:53;;;;;;;9.45;3.35;;;6.70;99.90;;;;;;5075407;28;20539;-52
2023/03/23 04:30:27;;;;;;;7.25;3.88;;;6.80;99.90;;;;;;5045905;28;20036;-52
2023/03/23 04:33:07;;;;;;;7.28;4.00;;;6.80;99.90;;;;;;5062388;28;20064;-50
2023/03/23 04:35:33;;;;;;;8.10;3.97;;;6.70;99.90;;;;;;5083387;28;20071;-51
2023/03/23 04:38:09;;;;;;;6.80;3.20;;;6.70;99.90;;;;;;5082382;28;20489;-50
2023/03/23 04:40:40;;;;;;;6.93;3.40;;;6.60;99.90;;;;;;5065329;28;20051;-51
2023/03/23 04:43:15;;;;;;;7.00;4.22;;;6.50;99.90;;;;;;5078279;28;20070;-50
2023/03/23 04:45:57;;;;;;;15.50;4.38;;;6.50;99.90;;;;;;5065826;28;20385;-50
2023/03/23 04:48:27;;;;;;;10.55;4.53;;;6.50;99.90;;;;;;5055840;28;20036;-51
2023/03/23 04:51:03;;;;;;;9.27;4.27;;;6.50;99.90;;;;;;5058758;28;20040;-50
2023/03/23 04:53:31;;;;;;;7.57;4.72;;;6.50;99.90;;;;;;5063294;28;20285;-50
2023/03/23 04:55:57;;;;;;;;;;;6.50;99.90;;;;;;5073335;28;20028;-51
2023/03/23 04:58:24;;;;;;;7.50;4.20;;;6.50;99.90;;;;;;5055807;28;20396;-52
2023/03/23 05:01:13;;;;;;;6.45;2.85;;;6.60;99.90;;;;;;5064302;28;20535;-50
2023/03/23 05:03:46;;;;;;;9.55;2.42;;;6.50;99.90;;;;;;5062023;28;20032;-50
2023/03/23 05:06:12;;;;;;;6.75;2.30;;;6.40;99.90;;;;;;5059401;28;20131;-52
2023/03/23 05:08:39;;;;;;;2.97;2.40;;;6.40;99.90;;;;;;5081750;28;20102;-49
2023/03/23 05:11:06;;;;;;;3.20;2.20;;;6.30;99.90;;;;;;5064295;28;20476;-53
2023/03/23 05:13:35;;;;;;;3.92;2.33;;;6.40;99.90;;;;;;5078471;28;20081;-51
2023/03/23 05:16:05;;;;;;;7.65;2.60;;;6.40;99.90;;;;;;5058114;28;20040;-50
2023/03/23 05:18:32;;;;;;;6.93;3.30;;;6.40;99.90;;;;;;5078940;28;20048;-50
2023/03/23 05:21:01;;;;;;;9.07;3.42;;;6.30;99.90;;;;;;5038992;28;20033;-51
2023/03/23 05:23:30;;;;;;;6.20;4.13;;;6.30;99.90;;;;;;5061000;28;20439;-50
2023/03/23 05:26:03;;;;;;;9.70;4.35;;;6.30;99.90;;;;;;5063499;28;20074;-52
2023/03/23 05:28:30;;;;;;;11.27;4.55;;;6.40;99.90;;;;;;5065359;28;20085;-49
2023/03/23 05:31:07;;;;;;;10.32;5.18;;;6.40;99.90;;;;;;5063696;28;20060;-51
2023/03/23 05:33:32;;;;;;;11.10;5.90;;;6.50;99.90;;;;;;5079485;28;20070;-49
2023/03/23 05:36:17;;;;;;;4.15;2.80;;;6.50;99.90;;;;;;5082754;28;20047;-50
2023/03/23 05:39:03;;;;;;;5.43;2.85;;;6.40;99.90;;;;;;5055563;28;20070;-51
2023/03/23 05:41:40;;;;;;;12.27;6.10;;;6.30;99.90;;;;;;5036676;28;20044;-50
2023/03/23 05:44:05;;;;;;;12.60;5.55;;;6.40;99.90;;;;;;5071932;28;20041;-50
2023/03/23 05:46:45;;;;;;;9.68;5.43;;;6.40;99.90;;;;;;5071885;28;20139;-53
2023/03/23 05:49:11;;;;;;;8.27;5.03;;;6.50;99.90;;;;;;5071396;28;20040;-50
2023/03/23 05:51:39;;;;;;;9.80;4.90;;;6.60;99.90;;;;;;5069529;28;20621;-52
2023/03/23 05:54:06;;;;;;;10.07;3.25;;;6.70;99.90;;;;;;5071383;28;20033;-50
2023/03/23 05:56:33;;;;;;;6.30;2.65;;;6.80;99.90;;;;;;5054347;28;20039;-51
2023/03/23 05:59:12;;;;;;;8.50;2.50;;;6.70;99.90;;;;;;5068912;28;20091;-47
2023/03/23 06:01:40;;;;;;;7.25;3.03;;;6.80;99.90;;;;;;5049961;28;20102;-50
2023/03/23 06:04:06;;;;;;;7.22;3.00;;;6.80;99.90;;;;;;5051453;28;20494;-50
2023/03/23 06:06:41;;;;;;;6.18;4.00;;;6.80;99.90;;;;;;5051928;28;20086;-48
2023/03/23 06:09:09;;;;;;;11.85;4.80;;;6.90;99.90;;;;;;5054253;28;20036;-50
2023/03/23 06:11:58;;;;;;;10.63;4.53;;;7.00;99.90;;;;;;5042549;28;20461;-51
2023/03/23 06:14:36;;;;;;;9.65;4.68;;;7.10;99.90;;;;;;5053914;28;20060;-51
2023/03/23 06:17:03;;;;;;;7.45;3.28;;;7.20;99.90;;;;;;5051620;28;20037;-50
2023/03/23 06:19:28;;;;;;;5.50;2.53;;;7.30;99.90;;;;;;5071316;28;20048;-52
2023/03/23 06:22:03;;;;;;;5.97;2.95;;;7.30;99.90;;;;;;5071420;28;20507;-51
2023/03/23 06:24:48;;;;;;;9.32;3.85;;;7.30;99.90;;;;;;5063411;28;20125;-50
2023/03/23 06:27:18;;;;;;;8.70;4.07;;;7.40;99.90;;;;;;5070685;28;20039;-50
2023/03/23 06:29:44;;;;;;;12.10;4.22;;;7.60;99.90;;;;;;5052649;28;20044;-51
2023/03/23 06:32:12;;;;;;;9.80;3.40;;;7.80;99.90;;;;;;5054631;28;20551;-50
2023/03/23 06:34:43;;;;;;;6.90;3.60;;;7.90;99.90;;;;;;5053859;28;20124;-50
2023/03/23 06:37:38;;;;;;;5.30;3.90;;;8.00;99.90;;;;;;5000707;28;20065;-50
2023/03/23 06:40:11;;;;;;;8.18;4.65;;;8.10;99.90;;;;;;5050743;28;20044;-49
2023/03/23 06:42:39;;;;;;;15.52;4.88;;;8.10;99.90;;;;;;5038199;28;20039;-52
2023/03/23 06:45:40;;;;;;;10.18;5.10;;;8.20;99.90;;;;;;5072272;28;20051;-48
2023/03/23 06:48:44;;;;;;;8.02;5.30;;;8.30;99.90;;;;;;5068931;28;20201;-48
2023/03/23 06:51:15;;;;;;;11.00;5.07;;;8.50;99.90;;;;;;5054283;28;20082;-50
2023/03/23 06:53:46;;;;;;;12.00;5.63;;;8.60;99.90;;;;;;5053815;28;20508;-51
2023/03/23 06:56:13;;;;;;;11.57;6.43;;;8.60;99.90;;;;;;5054431;28;20075;-51
2023/03/23 06:58:45;;;;;;;19.67;8.30;;;8.60;99.90;;;;;;5064540;28;20036;-51
2023/03/23 07:01:12;;;;;;;15.63;8.25;;;8.60;99.90;;;;;;5053060;28;20657;-50
2023/03/23 07:03:43;;;;;;;9.95;5.55;;;8.70;99.90;;;;;;5053902;28;20419;-50
2023/03/23 07:06:11;;;;;;;7.95;5.07;;;8.70;99.90;;;;;;5054318;28;20036;-50
2023/03/23 07:08:44;;;;;;;10.40;5.50;;;8.70;99.90;;;;;;5048838;28;20116;-51
2023/03/23 07:11:15;;;;;;;8.07;4.60;;;8.70;99.90;;;;;;5058952;28;20041;-49
2023/03/23 07:13:41;;;;;;;7.28;4.38;;;8.80;99.90;;;;;;5062480;28;20114;-51
2023/03/23 07:16:08;;;;;;;9.47;4.63;;;8.80;99.90;;;;;;5047718;28;20507;-51
2023/03/23 07:18:34;;;;;;;8.15;4.82;;;8.80;99.90;;;;;;5051919;28;20036;-50
2023/03/23 07:21:03;;;;;;;7.40;4.40;;;8.80;99.90;;;;;;5050615;28;20036;-50
2023/03/23 07:23:31;;;;;;;7.78;4.50;;;8.80;99.90;;;;;;5053042;28;20036;-52
2023/03/23 07:26:05;;;;;;;9.77;4.38;;;8.90;99.90;;;;;;5049292;28;20043;-49
2023/03/23 07:28:41;;;;;;;10.68;4.90;;;8.80;99.90;;;;;;5068061;28;20039;-51
2023/03/23 07:31:19;;;;;;;8.65;4.95;;;8.80;99.90;;;;;;5046978;28;20031;-51
2023/03/23 07:33:45;;;;;;;7.53;4.60;;;8.80;99.90;;;;;;5033887;28;20108;-51
2023/03/23 07:36:12;;;;;;;14.63;5.25;;;8.80;99.90;;;;;;5049904;28;20033;-50
2023/03/23 07:38:38;;;;;;;9.75;4.60;;;8.80;99.90;;;;;;5063925;28;20054;-50
2023/03/23 07:41:06;;;;;;;9.80;4.70;;;8.90;99.90;;;;;;5053398;28;20128;-53
2023/03/23 07:43:32;;;;;;;9.60;4.57;;;9.00;99.90;;;;;;5053426;28;20036;-51
2023/03/23 07:46:03;;;;;;;8.52;4.47;;;9.10;99.90;;;;;;5070054;28;20479;-50
2023/03/23 07:48:42;;;;;;;7.63;4.38;;;9.20;99.90;;;;;;5046883;28;20128;-50
2023/03/23 07:51:08;;;;;;;8.73;5.00;;;9.40;99.90;;;;;;5066270;28;20497;-52
2023/03/23 07:53:35;;;;;;;10.38;4.60;;;9.60;99.90;;;;;;5049977;28;20516;-50
2023/03/23 07:56:18;;;;;;;5.80;3.83;;;9.70;99.90;;;;;;5051468;28;20032;-49
2023/03/23 08:03:09;;;;;;;7.82;4.32;;;9.80;99.90;;;;;;5082094;28;20058;-49
2023/03/23 08:05:59;;;;;;;9.15;4.30;;;10.10;99.90;;;;;;5020972;28;20048;-48
2023/03/23 08:08:47;;;;;;;7.28;3.97;;;10.20;99.90;;;;;;5052950;28;20377;-47
2023/03/23 08:11:31;;;;;;;6.97;4.22;;;10.20;99.90;;;;;;5064101;28;20055;-48
2023/03/23 08:14:12;;;;;;;9.10;4.03;;;10.30;99.90;;;;;;5070981;28;20046;-48
2023/03/23 08:16:49;;;;;;;7.30;3.92;;;10.50;99.90;;;;;;5053157;28;20057;-48
2023/03/23 08:19:36;;;;;;;8.30;4.18;;;10.50;99.90;;;;;;5053638;28;20120;-48
2023/03/23 08:22:25;;;;;;;6.22;4.00;;;10.50;99.90;;;;;;5069117;28;20134;-50
2023/03/23 08:25:11;;;;;;;6.80;4.80;;;10.60;99.90;;;;;;5053164;28;20063;-51
2023/03/23 08:27:54;;;;;;;14.73;4.38;;;10.70;99.90;;;;;;5044798;28;20041;-49
2023/03/23 08:30:58;;;;;;;9.98;5.10;;;10.90;99.90;;;;;;5047534;28;20048;-48
2023/03/23 08:33:43;;;;;;;11.25;5.40;;;11.30;99.90;;;;;;5046980;28;20033;-48
2023/03/23 08:36:29;;;;;;;9.43;4.53;;;11.60;99.90;;;;;;5053328;28;20044;-48
2023/03/23 08:39:19;;;;;;;7.97;4.63;;;11.80;99.90;;;;;;5051515;28;20066;-48
2023/03/23 08:42:13;;;;;;;10.30;4.80;;;12.20;99.90;;;;;;5052917;28;20527;-49
2023/03/23 08:44:48;;;;;;;8.13;4.28;;;12.60;99.90;;;;;;5058573;28;20040;-47
2023/03/23 08:47:34;;;;;;;10.85;4.65;;;12.80;99.90;;;;;;5071050;28;20059;-49
2023/03/23 08:50:16;;;;;;;5.43;4.22;;;12.80;99.90;;;;;;5052495;28;20037;-47
2023/03/23 08:52:59;;;;;;;9.88;4.65;;;12.90;99.90;;;;;;5033651;28;20033;-49
2023/03/23 08:55:54;;;;;;;9.48;4.05;;;12.80;99.90;;;;;;5052720;28;20032;-48
2023/03/23 08:58:27;;;;;;;8.30;4.60;;;12.70;99.90;;;;;;5051892;28;20349;-48
2023/03/23 09:01:16;;;;;;;;;;;12.50;99.90;;;;;;5046138;28;20048;-49
2023/03/23 09:03:59;;;;;;;9.48;5.22;;;12.60;99.90;;;;;;5052607;28;19924;-47
2023/03/23 09:06:25;;;;;;;5.93;4.47;;;12.60;99.90;;;;;;5070594;28;20044;-49
2023/03/23 09:08:51;;;;;;;13.18;4.97;;;12.50;99.90;;;;;;5070089;28;20127;-48
2023/03/23 09:11:17;;;;;;;12.73;4.68;;;12.50;99.90;;;;;;5063025;28;20033;-48
2023/03/23 09:13:43;;;;;;;7.90;4.68;;;12.50;99.90;;;;;;5052173;28;20040;-48
2023/03/23 09:16:09;;;;;;;7.63;4.68;;;12.40;99.90;;;;;;5072852;28;20446;-48
2023/03/23 09:18:35;;;;;;;9.88;4.00;;;12.30;99.90;;;;;;5065020;28;20116;-49
2023/03/23 09:21:03;;;;;;;13.77;4.93;;;12.40;99.90;;;;;;5073682;28;20037;-48
2023/03/23 09:23:29;;;;;;;;;;;12.60;99.90;;;;;;5056140;28;20036;-48
2023/03/23 09:25:54;;;;;;;11.18;4.47;;;12.90;99.90;;;;;;5056235;28;19974;-48
2023/03/23 09:28:20;;;;;;;9.93;4.95;;;13.00;99.90;;;;;;5062620;28;20024;-48
2023/03/23 09:30:47;;;;;;;8.07;4.07;;;13.10;99.90;;;;;;5074088;28;20115;-48
2023/03/23 09:33:14;;;;;;;13.43;4.50;;;13.40;99.90;;;;;;5073487;28;20032;-48
2023/03/23 09:35:41;;;;;;;6.38;4.75;;;13.50;99.90;;;;;;5073191;28;20040;-48
2023/03/23 09:38:12;;;;;;;7.30;3.72;;;13.60;99.90;;;;;;5036336;28;20043;-49
2023/03/23 09:41:12;;;;;;;9.60;4.40;;;13.70;99.90;;;;;;5036824;28;20102;-48
2023/03/23 09:43:50;;;;;;;8.70;3.90;;;13.60;99.90;;;;;;5058859;28;20036;-46
2023/03/23 09:46:26;;;;;;;8.52;4.35;;;14.00;99.90;;;;;;5073720;28;20044;-50
2023/03/23 09:48:53;;;;;;;7.82;5.55;;;14.30;99.90;;;;;;5065680;28;20093;-49
2023/03/23 09:51:42;;;;;;;8.85;5.65;;;14.30;99.90;;;;;;5056158;28;20644;-48
2023/03/23 09:54:28;;;;;;;11.75;6.07;;;14.40;99.90;;;;;;5072819;28;20041;-51
2023/03/23 09:56:57;;;;;;;10.73;5.70;;;14.40;99.90;;;;;;5068578;28;20040;-48
2023/03/23 09:59:27;;;;;;;10.57;5.57;;;14.60;99.90;;;;;;5061117;28;20051;-48
2023/03/23 10:02:11;;;;;;;11.25;6.05;;;14.80;99.90;;;;;;5073371;28;20036;-48
2023/03/23 10:04:47;;;;;;;11.00;5.90;;;15.00;99.90;;;;;;5073227;28;20044;-50
2023/03/23 10:07:18;;;;;;;9.27;6.40;;;15.20;99.90;;;;;;5067250;28;20309;-48
2023/03/23 10:09:56;;;;;;;9.27;5.95;;;15.30;99.90;;;;;;5063388;28;20037;-48
2023/03/23 10:12:39;;;;;;;;;;;15.30;99.90;;;;;;5073813;28;20036;-48
2023/03/23 10:15:23;;;;;;;8.63;6.18;;;15.30;99.90;;;;;;5073152;28;19936;-48
2023/03/23 10:18:08;;;;;;;12.23;6.90;;;15.30;99.90;;;;;;5056435;28;20043;-48
2023/03/23 10:20:46;;;;;;;10.85;6.30;;;15.40;99.90;;;;;;5072767;28;20507;-48
2023/03/23 10:23:32;;;;;;;17.05;8.98;;;15.50;99.90;;;;;;5068554;28;20045;-48
2023/03/23 10:26:08;;;;;;;11.48;7.07;;;15.60;99.90;;;;;;5054755;28;20416;-48
2023/03/23 10:28:47;;;;;;;10.00;6.85;;;15.80;99.90;;;;;;5071528;28;20033;-48
2023/03/23 10:31:18;;;;;;;10.15;6.30;;;15.90;99.90;;;;;;5064988;28;20040;-49
2023/03/23 10:33:50;;;;;;;8.80;6.55;;;15.90;99.90;;;;;;5043060;28;20049;-48
2023/03/23 10:36:37;;;;;;;10.90;7.45;;;16.10;99.90;;;;;;5052776;28;20048;-48
2023/03/23 10:39:38;;;;;;;9.18;6.70;;;16.40;99.90;;;;;;5058660;28;20055;-50
2023/03/23 10:42:06;;;;;;;12.48;7.95;;;16.70;99.90;;;;;;5045199;28;20052;-48
2023/03/23 10:44:33;;;;;;;14.88;8.02;;;16.90;99.90;;;;;;5050038;28;20045;-48
2023/03/23 10:47:02;;;;;;;12.55;7.70;;;16.90;99.90;;;;;;5052043;28;20029;-47
2023/03/23 10:49:57;;;;;;;12.50;7.20;;;16.60;99.90;;;;;;5052154;28;20029;-48
2023/03/23 10:52:37;;;;;;;17.35;8.25;;;16.90;99.90;;;;;;5057644;28;20043;-47
2023/03/23 10:55:09;;;;;;;12.32;8.90;;;17.00;99.60;;;;;;5054061;28;20045;-48
2023/03/23 10:57:37;;;;;;;15.68;9.55;;;16.90;99.70;;;;;;5051040;28;20036;-50
2023/03/23 11:00:08;;;;;;;15.20;8.75;;;17.00;99.40;;;;;;5050425;28;20567;-49
2023/03/23 11:02:43;;;;;;;17.13;9.48;;;16.90;99.90;;;;;;5066248;28;20044;-49
2023/03/23 11:05:23;;;;;;;14.50;8.40;;;16.80;99.90;;;;;;5051236;28;20040;-48
2023/03/23 11:07:53;;;;;;;15.88;9.20;;;17.00;99.90;;;;;;5050216;28;20041;-52
2023/03/23 11:10:37;;;;;;;16.25;11.00;;;17.30;99.80;;;;;;5055865;28;20047;-49
2023/03/23 11:13:04;;;;;;;18.17;10.38;;;17.60;98.70;;;;;;5070857;28;20040;-49
2023/03/23 11:15:31;;;;;;;20.45;10.60;;;17.50;99.40;;;;;;5072005;28;20373;-48
2023/03/23 11:18:10;;;;;;;14.90;10.50;;;17.60;98.80;;;;;;5064888;28;20048;-48
2023/03/23 11:20:39;;;;;;;13.68;9.52;;;17.70;99.40;;;;;;5071726;28;20036;-49
2023/03/23 11:23:30;;;;;;;15.88;9.90;;;17.70;99.20;;;;;;5071409;28;20498;-52
2023/03/23 11:25:58;;;;;;;17.92;10.35;;;17.60;98.80;;;;;;5048620;28;20145;-48
2023/03/23 11:28:34;;;;;;;14.25;10.00;;;17.60;98.30;;;;;;5071159;28;20036;-49
2023/03/23 11:31:05;;;;;;;13.02;9.80;;;17.60;98.20;;;;;;5068607;28;20489;-51
2023/03/23 11:33:48;;;;;;;17.13;9.70;;;17.60;98.80;;;;;;5065401;28;20412;-48
2023/03/23 11:36:15;;;;;;;20.73;10.45;;;17.80;98.30;;;;;;5050827;28;20083;-48
2023/03/23 11:38:43;;;;;;;19.95;10.35;;;17.70;98.60;;;;;;5056909;28;20040;-49
2023/03/23 11:41:16;;;;;;;17.85;10.50;;;17.60;98.50;;;;;;5039565;28;20052;-48
2023/03/23 11:43:45;;;;;;;19.05;10.88;;;17.50;98.00;;;;;;5063553;28;20036;-49
2023/03/23 11:46:32;;;;;;;24.65;10.80;;;17.40;98.50;;;;;;5070007;28;20040;-50
2023/03/23 11:49:02;;;;;;;18.70;9.07;;;17.40;98.90;;;;;;5070632;28;20049;-48
2023/03/23 11:51:48;;;;;;;18.65;10.43;;;17.60;99.00;;;;;;5054147;28;20397;-48
2023/03/23 11:54:41;;;;;;;17.55;11.00;;;17.80;98.50;;;;;;5071560;28;20043;-48
2023/03/23 11:57:11;;;;;;;24.02;10.98;;;17.90;97.80;;;;;;5071162;28;20037;-48
2023/03/23 11:59:38;;;;;;;22.90;10.75;;;18.00;97.30;;;;;;5064468;28;20497;-48
2023/03/23 12:02:32;;;;;;;17.85;11.60;;;18.10;98.30;;;;;;5069399;28;20044;-49
2023/03/23 12:05:25;;;;;;;15.27;11.13;;;18.10;97.60;;;;;;5043347;28;20509;-48
2023/03/23 12:08:24;;;;;;;17.77;11.90;;;18.10;97.20;;;;;;5070943;28;20485;-48
2023/03/23 12:11:01;;;;;;;15.63;10.40;;;18.30;96.50;;;;;;5008487;28;20132;-48
2023/03/23 12:13:55;;;;;;;14.40;10.20;;;18.50;96.80;;;;;;5068974;28;20051;-48
2023/03/23 12:16:34;;;;;;;15.98;10.30;;;18.50;97.50;;;;;;5059997;28;20224;-49
2023/03/23 12:19:00;;;;;;;16.05;11.18;;;18.60;97.70;;;;;;5070346;28;20123;-48
2023/03/23 12:21:45;;;;;;;15.98;11.07;;;18.60;97.20;;;;;;5070945;28;20124;-48
2023/03/23 12:24:40;;;;;;;16.27;11.40;;;18.40;96.60;;;;;;5046562;28;20037;-48
2023/03/23 12:27:30;;;;;;;16.90;11.15;;;18.10;96.70;;;;;;5070817;28;20041;-47
2023/03/23 12:30:12;;;;;;;16.20;11.75;;;18.00;97.70;;;;;;5070353;28;20076;-47
2023/03/23 12:32:58;;;;;;;17.67;10.05;;;18.20;97.30;;;;;;5054991;28;20032;-51
2023/03/23 12:35:27;;;;;;;17.45;10.68;;;18.40;96.30;;;;;;5061846;28;20032;-47
2023/03/23 12:38:20;;;;;;;15.85;10.32;;;18.50;96.40;;;;;;5070783;28;20066;-50
2023/03/23 12:41:17;;;;;;;15.60;10.40;;;18.70;96.40;;;;;;5062181;28;20170;-48
2023/03/23 12:43:59;;;;;;;16.45;11.95;;;18.70;95.30;;;;;;5043014;28;20146;-48
2023/03/23 12:46:44;;;;;;;18.23;10.63;;;18.70;95.50;;;;;;5070963;28;20381;-48
2023/03/23 12:49:13;;;;;;;16.98;10.35;;;18.40;94.10;;;;;;5061388;28;20041;-48
2023/03/23 12:52:11;;;;;;;15.88;9.75;;;18.30;94.70;;;;;;5073830;28;20493;-49
2023/03/23 12:55:11;;;;;;;12.32;7.72;;;18.30;93.80;;;;;;5074661;28;20079;-48
2023/03/23 12:57:58;;;;;;;12.73;8.43;;;18.20;93.00;;;;;;5061021;28;20044;-51
2023/03/23 13:01:02;;;;;;;13.30;9.07;;;18.20;93.30;;;;;;5059416;28;20064;-49
2023/03/23 13:03:43;;;;;;;15.57;9.25;;;18.40;94.30;;;;;;5034551;28;20665;-48
2023/03/23 13:06:42;;;;;;;18.40;8.02;;;18.70;93.80;;;;;;5031041;28;20032;-48
2023/03/23 13:09:26;;;;;;;13.48;8.85;;;19.10;93.60;;;;;;5047702;28;20055;-48
2023/03/23 13:11:54;;;;;;;14.88;9.48;;;19.50;92.60;;;;;;5073862;28;20037;-48
2023/03/23 13:14:39;;;;;;;15.30;9.57;;;19.70;91.70;;;;;;5072963;28;20493;-48
2023/03/23 13:17:28;;;;;;;15.50;10.45;;;19.80;92.60;;;;;;5057342;28;20498;-49
2023/03/23 13:20:24;;;;;;;16.23;10.82;;;19.70;92.40;;;;;;5073797;28;20040;-49
2023/03/23 13:23:14;;;;;;;13.55;10.00;;;19.60;93.60;;;;;;5074143;28;20036;-50
2023/03/23 13:26:03;;;;;;;15.40;11.20;;;19.80;93.10;;;;;;5061571;28;20041;-49
2023/03/23 13:28:46;;;;;;;15.93;10.77;;;20.00;92.00;;;;;;5066614;28;20036;-48
2023/03/23 13:31:15;;;;;;;20.15;11.48;;;20.10;92.10;;;;;;5073682;28;20087;-48
2023/03/23 13:33:51;;;;;;;17.45;10.85;;;20.20;92.20;;;;;;5049876;28;20040;-48